createdAt,value
2023-05-19T00:02:07.557Z,2.10
2023-05-19T00:04:34.196Z,1.45
2023-05-19T00:07:00.766Z,1.60
2023-05-19T00:09:27.406Z,1.20
2023-05-19T00:11:54.025Z,2.10
2023-05-19T00:14:21.098Z,1.65
2023-05-19T00:16:47.732Z,1.65
2023-05-19T00:19:14.446Z,1.80
2023-05-19T00:21:40.898Z,1.50
2023-05-19T00:24:07.748Z,1.40
2023-05-19T00:26:34.275Z,1.83
2023-05-19T00:29:00.701Z,1.17
2023-05-19T00:31:27.091Z,1.52
2023-05-19T00:33:53.759Z,1.00
2023-05-19T00:36:20.111Z,1.77
2023-05-19T00:38:46.788Z,1.65
2023-05-19T00:41:13.228Z,2.28
2023-05-19T00:43:39.704Z,1.33
2023-05-19T00:46:06.246Z,1.83
2023-05-19T00:48:32.648Z,2.17
2023-05-19T00:51:00.752Z,1.20
2023-05-19T00:53:27.709Z,1.40
2023-05-19T00:55:54.124Z,1.25
2023-05-19T00:58:20.555Z,1.65
2023-05-19T01:00:47.049Z,1.67
2023-05-19T01:03:13.578Z,1.38
2023-05-19T01:05:41.307Z,1.70
2023-05-19T01:08:08.846Z,1.33
2023-05-19T01:10:35.243Z,1.80
2023-05-19T01:13:05.765Z,1.27
2023-05-19T01:15:50.434Z,1.15
2023-05-19T01:18:25.682Z,1.40
2023-05-19T01:21:02.535Z,1.65
2023-05-19T01:23:28.957Z,1.52
2023-05-19T01:26:11.541Z,1.98
2023-05-19T01:29:02.724Z,1.67
2023-05-19T01:31:32.062Z,1.90
2023-05-19T01:34:00.309Z,2.25
2023-05-19T01:36:27.737Z,1.77
2023-05-19T01:38:57.154Z,1.73
2023-05-19T01:41:25.141Z,1.10
2023-05-19T01:43:51.867Z,1.63
2023-05-19T01:46:19.263Z,2.28
2023-05-19T01:48:47.563Z,1.33
2023-05-19T01:51:14.098Z,1.70
2023-05-19T01:53:40.499Z,1.90
2023-05-19T01:56:07.555Z,2.05
2023-05-19T01:58:51.666Z,2.10
2023-05-19T02:01:32.140Z,1.75
2023-05-19T02:04:36.154Z,1.92
2023-05-19T02:07:26.521Z,1.20
2023-05-19T02:10:16.546Z,1.77
2023-05-19T02:12:45.780Z,1.70
2023-05-19T02:15:23.304Z,1.35
2023-05-19T02:17:51.322Z,1.27
2023-05-19T02:20:18.634Z,1.45
2023-05-19T02:22:45.593Z,1.90
2023-05-19T02:25:11.995Z,1.60
2023-05-19T02:27:39.005Z,1.23
2023-05-19T02:30:07.151Z,1.33
2023-05-19T02:32:34.021Z,1.58
2023-05-19T02:35:00.542Z,1.10
2023-05-19T02:37:26.909Z,1.45
2023-05-19T02:39:53.327Z,1.60
2023-05-19T02:42:19.849Z,1.23
2023-05-19T02:44:46.509Z,1.65
2023-05-19T02:47:13.424Z,1.35
2023-05-19T02:49:40.058Z,1.42
2023-05-19T02:52:06.778Z,1.80
2023-05-19T02:54:34.518Z,1.05
2023-05-19T02:57:01.700Z,1.63
2023-05-19T02:59:28.252Z,2.17
2023-05-19T03:02:01.115Z,2.40
2023-05-19T03:04:28.250Z,2.03
2023-05-19T03:06:54.795Z,2.00
2023-05-19T03:09:21.333Z,1.70
2023-05-19T03:11:47.693Z,1.73
2023-05-19T03:14:14.418Z,1.63
2023-05-19T03:16:41.794Z,1.65
2023-05-19T03:19:08.953Z,1.77
2023-05-19T03:21:35.745Z,1.58
2023-05-19T03:24:02.549Z,1.95
2023-05-19T03:26:28.940Z,1.95
2023-05-19T03:28:55.590Z,1.50
2023-05-19T03:31:21.952Z,2.13
2023-05-19T03:33:48.499Z,1.90
2023-05-19T03:36:14.848Z,1.33
2023-05-19T03:38:41.204Z,2.30
2023-05-19T03:41:07.614Z,1.88
2023-05-19T03:43:33.967Z,1.65
2023-05-19T03:46:00.436Z,1.95
2023-05-19T03:48:26.951Z,1.95
2023-05-19T03:50:53.308Z,2.80
2023-05-19T03:53:20.014Z,2.47
2023-05-19T03:55:46.647Z,1.88
2023-05-19T03:58:12.990Z,1.88
2023-05-19T04:00:39.680Z,1.92
2023-05-19T04:03:06.206Z,2.17
2023-05-19T04:05:32.852Z,1.88
2023-05-19T04:07:59.199Z,2.20
2023-05-19T04:10:25.631Z,2.08
2023-05-19T04:12:51.984Z,1.92
2023-05-19T04:15:18.440Z,2.45
2023-05-19T04:17:44.923Z,2.47
2023-05-19T04:20:11.900Z,2.60
2023-05-19T04:22:38.315Z,2.03
2023-05-19T04:25:05.315Z,2.50
2023-05-19T04:27:31.758Z,2.80
2023-05-19T04:29:58.351Z,2.17
2023-05-19T04:32:24.958Z,1.90
2023-05-19T04:34:51.345Z,1.80
2023-05-19T04:37:17.707Z,2.30
2023-05-19T04:39:44.510Z,1.95
2023-05-19T04:42:11.283Z,2.38
2023-05-19T04:44:40.766Z,2.05
2023-05-19T04:47:08.558Z,1.77
2023-05-19T04:49:35.709Z,1.92
2023-05-19T04:52:02.057Z,2.20
2023-05-19T04:54:28.433Z,2.38
2023-05-19T04:56:54.857Z,2.72
2023-05-19T04:59:22.477Z,2.40
2023-05-19T05:01:49.026Z,2.17
2023-05-19T05:04:15.684Z,3.08
2023-05-19T05:06:42.412Z,2.10
2023-05-19T05:09:09.126Z,2.20
2023-05-19T05:11:35.896Z,2.25
2023-05-19T05:14:02.914Z,2.17
2023-05-19T05:16:29.759Z,2.28
2023-05-19T05:18:56.466Z,1.77
2023-05-19T05:21:23.714Z,2.33
2023-05-19T05:23:51.592Z,2.03
2023-05-19T05:26:19.607Z,1.95
2023-05-19T05:28:45.979Z,2.67
2023-05-19T05:31:12.405Z,2.85
2023-05-19T05:33:39.447Z,2.30
2023-05-19T05:36:06.496Z,2.00
2023-05-19T05:38:33.036Z,2.28
2023-05-19T05:40:59.378Z,2.22
2023-05-19T05:43:25.904Z,2.30
2023-05-19T05:45:53.927Z,2.70
2023-05-19T05:48:20.720Z,2.85
2023-05-19T05:50:49.430Z,2.28
2023-05-19T05:53:19.689Z,1.88
2023-05-19T05:55:47.632Z,2.38
2023-05-19T05:58:14.089Z,2.50
2023-05-19T06:00:40.920Z,1.90
2023-05-19T06:03:07.839Z,2.35
2023-05-19T06:05:34.763Z,2.75
2023-05-19T06:08:01.616Z,2.38
2023-05-19T06:10:28.914Z,1.65
2023-05-19T06:12:55.787Z,1.58
2023-05-19T06:15:22.495Z,2.25
2023-05-19T06:17:50.262Z,1.77
2023-05-19T06:20:18.089Z,1.75
2023-05-19T06:22:44.504Z,1.75
2023-05-19T06:25:10.941Z,1.50
2023-05-19T06:27:37.387Z,2.05
2023-05-19T06:30:04.040Z,2.20
2023-05-19T06:32:30.660Z,2.15
2023-05-19T06:34:57.345Z,1.75
2023-05-19T06:37:24.417Z,1.60
2023-05-19T06:39:52.864Z,1.90
2023-05-19T06:42:20.772Z,2.15
2023-05-19T06:44:47.128Z,1.15
2023-05-19T06:47:13.575Z,1.55
2023-05-19T06:49:40.136Z,2.25
2023-05-19T06:52:06.740Z,1.20
2023-05-19T06:54:33.147Z,1.50
2023-05-19T06:56:59.778Z,1.60
2023-05-19T06:59:26.221Z,1.45
2023-05-19T07:01:52.618Z,1.23
2023-05-19T07:04:20.776Z,1.60
2023-05-19T07:06:47.157Z,1.75
2023-05-19T07:09:13.517Z,1.45
2023-05-19T07:11:40.353Z,1.20
2023-05-19T07:14:06.717Z,1.17
2023-05-19T07:16:33.384Z,1.58
2023-05-19T07:19:00.432Z,1.33
2023-05-19T07:21:26.861Z,1.58
2023-05-19T07:23:53.416Z,0.80
2023-05-19T07:26:19.994Z,1.70
2023-05-19T07:28:46.684Z,1.30
2023-05-19T07:31:13.052Z,1.70
2023-05-19T07:33:39.663Z,1.70
2023-05-19T07:36:06.429Z,1.35
2023-05-19T07:38:33.207Z,1.67
2023-05-19T07:41:00.839Z,1.60
2023-05-19T07:43:27.208Z,1.30
2023-05-19T07:45:53.771Z,1.40
2023-05-19T07:48:20.345Z,1.77
2023-05-19T07:50:47.496Z,1.60
2023-05-19T07:53:14.091Z,2.05
2023-05-19T07:55:40.526Z,1.55
2023-05-19T07:58:07.501Z,1.20
2023-05-19T08:00:34.533Z,1.85
2023-05-19T08:03:01.066Z,1.33
2023-05-19T08:05:27.614Z,1.00
2023-05-19T08:07:55.083Z,1.60
2023-05-19T08:10:21.491Z,1.38
2023-05-19T08:12:48.070Z,1.27
2023-05-19T08:15:14.450Z,1.02
2023-05-19T08:17:40.836Z,1.88
2023-05-19T08:20:08.072Z,1.70
2023-05-19T08:22:34.881Z,1.88
2023-05-19T08:25:01.295Z,1.38
2023-05-19T08:27:28.018Z,1.92
2023-05-19T08:29:54.813Z,1.10
2023-05-19T08:32:21.639Z,1.33
2023-05-19T08:34:48.021Z,1.17
2023-05-19T08:37:14.729Z,1.58
2023-05-19T08:39:41.621Z,1.30
2023-05-19T08:42:08.187Z,1.30
2023-05-19T08:44:34.650Z,1.85
2023-05-19T08:47:03.698Z,1.35
2023-05-19T08:49:34.121Z,1.83
2023-05-19T08:52:09.758Z,1.90
2023-05-19T08:54:43.592Z,0.90
2023-05-19T08:57:10.380Z,1.70
2023-05-19T08:59:38.119Z,1.60
2023-05-19T09:02:05.152Z,1.80
2023-05-19T09:04:32.502Z,1.58
2023-05-19T09:06:59.368Z,2.42
2023-05-19T09:09:25.816Z,1.38
2023-05-19T09:11:52.732Z,1.48
2023-05-19T09:14:19.186Z,1.50
2023-05-19T09:16:46.043Z,1.48
2023-05-19T09:19:14.031Z,1.60
2023-05-19T09:21:40.491Z,1.98
2023-05-19T09:24:08.326Z,1.30
2023-05-19T09:26:42.716Z,1.67
2023-05-19T09:29:13.612Z,1.57
2023-05-19T09:31:47.626Z,1.65
2023-05-19T09:34:14.114Z,1.75
2023-05-19T09:36:41.440Z,1.20
2023-05-19T09:39:17.625Z,1.25
2023-05-19T09:41:44.996Z,1.40
2023-05-19T09:44:25.306Z,1.50
2023-05-19T09:46:52.930Z,1.25
2023-05-19T09:49:30.494Z,1.15
2023-05-19T09:51:58.825Z,1.73
2023-05-19T09:54:26.308Z,2.10
2023-05-19T09:57:00.508Z,1.30
2023-05-19T09:59:31.347Z,1.42
2023-05-19T10:01:59.996Z,1.27
2023-05-19T10:04:28.590Z,1.40
2023-05-19T10:06:57.302Z,1.27
2023-05-19T10:09:24.787Z,1.50
2023-05-19T10:11:56.263Z,0.98
2023-05-19T10:14:24.379Z,0.77
2023-05-19T10:16:52.062Z,0.85
2023-05-19T10:19:22.740Z,1.35
2023-05-19T10:21:50.270Z,0.88
2023-05-19T10:24:16.983Z,1.00
2023-05-19T10:26:46.837Z,0.73
2023-05-19T10:29:16.177Z,0.80
2023-05-19T10:31:45.439Z,1.15
2023-05-19T10:34:34.854Z,0.85
2023-05-19T10:37:34.056Z,0.80
2023-05-19T10:40:00.954Z,1.05
2023-05-19T10:42:40.604Z,1.00
2023-05-19T10:45:18.544Z,1.10
2023-05-19T10:47:45.475Z,0.70
2023-05-19T10:50:12.377Z,0.82
2023-05-19T10:52:40.334Z,0.80
2023-05-19T10:55:13.243Z,1.05
2023-05-19T10:57:53.807Z,1.02
2023-05-19T11:00:32.204Z,0.93
2023-05-19T11:03:17.650Z,0.88
2023-05-19T11:05:44.419Z,0.80
2023-05-19T11:08:11.530Z,0.85
2023-05-19T11:10:38.788Z,0.80
2023-05-19T11:13:06.471Z,0.85
2023-05-19T11:15:36.339Z,1.02
2023-05-19T11:18:04.816Z,0.70
2023-05-19T11:20:31.312Z,1.30
2023-05-19T11:23:17.064Z,1.48
2023-05-19T11:25:50.750Z,1.00
2023-05-19T11:28:19.982Z,0.75
2023-05-19T11:30:48.067Z,0.80
2023-05-19T11:33:14.837Z,1.17
2023-05-19T11:35:42.136Z,0.60
2023-05-19T11:38:08.835Z,0.85
2023-05-19T11:40:35.549Z,0.90
2023-05-19T11:43:02.178Z,1.33
2023-05-19T11:45:31.605Z,0.88
2023-05-19T11:48:02.553Z,0.82
2023-05-19T11:50:31.755Z,0.60
2023-05-19T11:53:01.054Z,0.98
2023-05-19T11:55:27.999Z,0.60
2023-05-19T11:58:03.919Z,0.73
2023-05-19T12:00:36.445Z,0.75
2023-05-19T12:03:03.248Z,0.80
2023-05-19T12:05:30.157Z,0.88
2023-05-19T12:07:56.916Z,1.20
2023-05-19T12:10:24.416Z,0.68
2023-05-19T12:12:51.506Z,0.70
2023-05-19T12:15:22.572Z,0.63
2023-05-19T12:18:00.183Z,1.17
2023-05-19T12:20:29.656Z,0.40
2023-05-19T12:22:56.172Z,0.63
2023-05-19T12:25:23.862Z,0.77
2023-05-19T12:27:50.547Z,1.05
2023-05-19T12:30:17.175Z,0.95
2023-05-19T12:32:43.862Z,0.85
2023-05-19T12:35:10.910Z,0.65
2023-05-19T12:37:41.631Z,0.77
2023-05-19T12:40:10.029Z,1.00
2023-05-19T12:42:36.394Z,1.00
2023-05-19T12:45:04.453Z,0.55
2023-05-19T12:47:32.986Z,0.93
2023-05-19T12:49:59.695Z,0.65
2023-05-19T12:52:27.550Z,1.13
2023-05-19T12:55:00.506Z,0.90
2023-05-19T12:57:27.982Z,1.13
2023-05-19T13:00:00.934Z,0.85
2023-05-19T13:02:27.851Z,0.90
2023-05-19T13:04:54.593Z,0.70
2023-05-19T13:07:20.990Z,0.98
2023-05-19T13:09:47.343Z,0.82
2023-05-19T13:12:13.798Z,1.00
2023-05-19T13:14:40.220Z,0.75
2023-05-19T13:17:06.712Z,0.65
2023-05-19T13:19:33.235Z,0.98
2023-05-19T13:21:59.752Z,0.93
2023-05-19T13:24:26.090Z,0.52
2023-05-19T13:26:53.860Z,0.57
2023-05-19T13:29:20.376Z,0.95
2023-05-19T13:31:46.726Z,0.80
2023-05-19T13:34:13.255Z,0.70
2023-05-19T13:36:39.624Z,0.60
2023-05-19T13:39:06.364Z,0.50
2023-05-19T13:41:32.697Z,0.65
2023-05-19T13:43:59.174Z,0.50
2023-05-19T13:46:36.763Z,0.60
2023-05-19T13:49:10.876Z,0.60
2023-05-19T13:51:37.313Z,0.40
2023-05-19T13:54:03.731Z,0.70
2023-05-19T13:56:30.219Z,0.73
2023-05-19T13:58:56.565Z,0.70
2023-05-19T14:01:22.948Z,0.60
2023-05-19T14:03:49.791Z,0.93
2023-05-19T14:06:16.570Z,1.27
2023-05-19T14:08:43.288Z,0.77
2023-05-19T14:11:09.634Z,0.50
2023-05-19T14:13:39.114Z,0.80
2023-05-19T14:16:08.482Z,0.60
2023-05-19T14:18:34.992Z,0.57
2023-05-19T14:21:01.428Z,0.60
2023-05-19T14:23:27.785Z,0.40
2023-05-19T14:25:54.227Z,0.40
2023-05-19T14:28:20.797Z,0.68
2023-05-19T14:30:47.939Z,0.73
2023-05-19T14:33:14.765Z,0.68
2023-05-19T14:35:41.166Z,0.65
2023-05-19T14:38:07.792Z,0.60
2023-05-19T14:40:36.962Z,0.85
2023-05-19T14:43:03.513Z,0.70
2023-05-19T14:45:29.879Z,0.70
2023-05-19T14:47:56.374Z,0.73
2023-05-19T14:50:22.778Z,0.98
2023-05-19T14:52:49.286Z,0.60
2023-05-19T14:55:15.909Z,1.48
2023-05-19T14:57:42.319Z,0.60
2023-05-19T15:00:09.358Z,0.60
2023-05-19T15:02:36.476Z,1.00
2023-05-19T15:05:03.030Z,0.90
2023-05-19T15:07:29.390Z,0.45
2023-05-19T15:09:55.817Z,0.68
2023-05-19T15:12:22.275Z,0.65
2023-05-19T15:14:48.956Z,0.80
2023-05-19T15:17:15.430Z,0.60
2023-05-19T15:19:41.925Z,0.75
2023-05-19T15:22:08.776Z,0.55
2023-05-19T15:24:35.260Z,1.10
2023-05-19T15:27:02.268Z,1.70
2023-05-19T15:29:28.717Z,0.60
2023-05-19T15:31:55.146Z,1.02
2023-05-19T15:34:21.750Z,0.63
2023-05-19T15:36:48.233Z,0.70
2023-05-19T15:39:14.677Z,0.50
2023-05-19T15:41:41.042Z,0.88
2023-05-19T15:44:07.477Z,0.57
2023-05-19T15:46:34.271Z,0.90
2023-05-19T15:49:00.967Z,1.10
2023-05-19T15:51:27.917Z,0.52
2023-05-19T15:53:54.322Z,0.60
2023-05-19T15:56:21.024Z,0.60
2023-05-19T15:58:47.553Z,0.80
2023-05-19T16:01:16.043Z,0.60
2023-05-19T16:03:42.786Z,0.80
2023-05-19T16:06:09.601Z,0.40
2023-05-19T16:08:35.962Z,0.63
2023-05-19T16:11:02.326Z,0.60
2023-05-19T16:13:28.744Z,0.60
2023-05-19T16:15:55.335Z,0.60
2023-05-19T16:18:21.703Z,2.38
2023-05-19T16:20:48.304Z,1.15
2023-05-19T16:23:14.639Z,1.00
2023-05-19T16:25:41.413Z,0.70
2023-05-19T16:28:08.117Z,0.82
2023-05-19T16:30:34.694Z,1.10
2023-05-19T16:33:01.203Z,1.23
2023-05-19T16:35:27.699Z,0.73
2023-05-19T16:37:54.204Z,0.82
2023-05-19T16:40:20.585Z,0.77
2023-05-19T16:42:47.216Z,0.90
2023-05-19T16:45:13.645Z,0.85
2023-05-19T16:47:40.105Z,1.20
2023-05-19T16:50:07.322Z,0.80
2023-05-19T16:52:34.014Z,0.80
2023-05-19T16:55:00.376Z,0.98
2023-05-19T16:57:26.760Z,1.00
2023-05-19T16:59:53.506Z,1.10
2023-05-19T17:02:19.863Z,0.90
2023-05-19T17:04:46.225Z,1.15
2023-05-19T17:07:13.531Z,1.17
2023-05-19T17:09:39.882Z,0.80
2023-05-19T17:12:06.655Z,0.98
2023-05-19T17:14:33.005Z,1.30
2023-05-19T17:16:59.745Z,0.95
2023-05-19T17:19:26.374Z,0.75
2023-05-19T17:21:53.057Z,1.13
2023-05-19T17:24:19.464Z,0.73
2023-05-19T17:26:46.046Z,0.90
2023-05-19T17:29:12.401Z,1.25
2023-05-19T17:31:38.901Z,0.95
2023-05-19T17:34:05.382Z,1.35
2023-05-19T17:36:31.729Z,1.05
2023-05-19T17:38:58.149Z,0.93
2023-05-19T17:41:25.089Z,1.20
2023-05-19T17:43:51.810Z,1.10
2023-05-19T17:46:18.577Z,1.10
2023-05-19T17:48:45.011Z,0.85
2023-05-19T17:51:11.856Z,0.90
2023-05-19T17:53:38.476Z,1.02
2023-05-19T17:56:06.224Z,1.17
2023-05-19T17:58:33.009Z,1.15
2023-05-19T18:00:59.776Z,1.20
2023-05-19T18:03:26.506Z,1.02
2023-05-19T18:05:53.318Z,0.90
2023-05-19T18:08:21.176Z,1.00
2023-05-19T18:10:47.840Z,1.15
2023-05-19T18:13:14.256Z,0.98
2023-05-19T18:15:40.637Z,1.67
2023-05-19T18:18:07.138Z,0.70
2023-05-19T18:20:37.189Z,0.90
2023-05-19T18:23:03.999Z,1.00
2023-05-19T18:25:30.467Z,0.90
2023-05-19T18:27:56.836Z,1.15
2023-05-19T18:30:23.374Z,1.15
2023-05-19T18:32:49.821Z,0.80
2023-05-19T18:35:16.413Z,1.00
2023-05-19T18:37:42.831Z,0.90
2023-05-19T18:40:09.991Z,1.00
2023-05-19T18:42:36.411Z,1.00
2023-05-19T18:45:03.228Z,1.40
2023-05-19T18:47:29.675Z,1.30
2023-05-19T18:49:56.079Z,0.85
2023-05-19T18:52:22.513Z,0.80
2023-05-19T18:54:48.879Z,0.95
2023-05-19T18:57:15.294Z,1.20
2023-05-19T18:59:41.627Z,1.10
2023-05-19T19:02:07.985Z,1.38
2023-05-19T19:04:34.461Z,1.33
2023-05-19T19:07:01.152Z,1.00
2023-05-19T19:09:27.716Z,1.00
2023-05-19T19:11:54.074Z,1.23
2023-05-19T19:14:20.668Z,1.52
2023-05-19T19:16:47.110Z,1.27
2023-05-19T19:19:13.821Z,1.20
2023-05-19T19:21:41.342Z,0.98
2023-05-19T19:24:07.702Z,1.08
2023-05-19T19:26:34.132Z,1.23
2023-05-19T19:29:00.486Z,1.15
2023-05-19T19:31:27.355Z,0.90
2023-05-19T19:33:53.823Z,0.90
2023-05-19T19:36:20.434Z,0.77
2023-05-19T19:38:46.887Z,1.20
2023-05-19T19:41:13.288Z,1.05
2023-05-19T19:43:39.813Z,0.90
2023-05-19T19:46:06.179Z,0.90
2023-05-19T19:48:32.869Z,0.90
2023-05-19T19:50:59.356Z,1.50
2023-05-19T19:53:25.722Z,1.13
2023-05-19T19:56:02.229Z,1.08
2023-05-19T19:58:29.131Z,1.05
2023-05-19T20:00:59.971Z,1.20
2023-05-19T20:03:26.669Z,1.00
2023-05-19T20:05:54.956Z,1.02
2023-05-19T20:08:21.997Z,1.70
2023-05-19T20:10:48.515Z,0.65
2023-05-19T20:13:15.920Z,0.80
2023-05-19T20:15:43.391Z,1.00
2023-05-19T20:18:10.434Z,1.25
2023-05-19T20:20:37.716Z,1.02
2023-05-19T20:23:04.089Z,1.23
2023-05-19T20:25:30.781Z,1.20
2023-05-19T20:27:57.155Z,1.13
2023-05-19T20:30:23.879Z,1.00
2023-05-19T20:32:50.328Z,0.90
2023-05-19T20:35:16.768Z,0.80
2023-05-19T20:37:43.189Z,0.90
2023-05-19T20:40:09.770Z,1.05
2023-05-19T20:42:38.842Z,1.20
2023-05-19T20:45:05.732Z,1.02
2023-05-19T20:47:32.292Z,1.15
2023-05-19T20:49:58.693Z,0.75
2023-05-19T20:52:25.418Z,0.95
2023-05-19T20:54:51.766Z,1.20
2023-05-19T20:57:18.208Z,0.90
2023-05-19T20:59:44.630Z,1.17
2023-05-19T21:02:11.041Z,0.90
2023-05-19T21:04:38.661Z,0.82
2023-05-19T21:07:05.293Z,1.27
2023-05-19T21:09:31.675Z,0.60
2023-05-19T21:11:58.371Z,1.00
2023-05-19T21:14:24.789Z,1.33
2023-05-19T21:16:52.662Z,1.27
2023-05-19T21:19:19.579Z,0.90
2023-05-19T21:21:46.534Z,0.93
2023-05-19T21:24:14.118Z,1.35
2023-05-19T21:26:41.319Z,1.30
2023-05-19T21:29:08.656Z,1.15
2023-05-19T21:31:35.732Z,1.10
2023-05-19T21:34:03.012Z,0.98
2023-05-19T21:36:29.448Z,0.95
2023-05-19T21:38:56.299Z,1.60
2023-05-19T21:41:22.661Z,0.95
2023-05-19T21:43:49.078Z,0.98
2023-05-19T21:46:15.621Z,0.95
2023-05-19T21:48:42.067Z,1.10
2023-05-19T21:51:08.404Z,1.10
2023-05-19T21:53:34.755Z,1.35
2023-05-19T21:56:01.289Z,0.98
2023-05-19T21:58:27.649Z,1.00
2023-05-19T22:00:54.377Z,1.05
2023-05-19T22:03:21.209Z,1.00
2023-05-19T22:05:51.839Z,1.38
2023-05-19T22:08:19.513Z,1.00
2023-05-19T22:10:49.144Z,1.10
2023-05-19T22:13:15.894Z,1.10
2023-05-19T22:15:42.377Z,1.10
2023-05-19T22:18:08.797Z,1.08
2023-05-19T22:20:35.356Z,1.45
2023-05-19T22:23:01.817Z,1.55
2023-05-19T22:25:28.172Z,1.20
2023-05-19T22:27:54.862Z,1.30
2023-05-19T22:30:21.591Z,1.50
2023-05-19T22:32:48.078Z,1.40
2023-05-19T22:35:14.767Z,1.30
2023-05-19T22:37:41.476Z,1.08
2023-05-19T22:40:08.204Z,1.40
2023-05-19T22:42:34.559Z,1.60
2023-05-19T22:45:00.978Z,1.30
2023-05-19T22:47:27.353Z,1.60
2023-05-19T22:49:54.959Z,1.42
2023-05-19T22:52:23.636Z,1.77
2023-05-19T22:54:50.253Z,1.48
2023-05-19T22:57:17.189Z,1.27
2023-05-19T22:59:43.592Z,1.50
2023-05-19T23:02:10.410Z,1.35
2023-05-19T23:04:36.790Z,2.08
2023-05-19T23:07:03.347Z,1.50
2023-05-19T23:09:29.715Z,1.90
2023-05-19T23:11:56.356Z,1.80
2023-05-19T23:14:22.789Z,1.50
2023-05-19T23:16:49.237Z,2.03
2023-05-19T23:19:15.746Z,1.40
2023-05-19T23:21:42.155Z,1.65
2023-05-19T23:24:08.559Z,1.38
2023-05-19T23:26:34.964Z,1.40
2023-05-19T23:29:01.316Z,1.67
2023-05-19T23:31:27.789Z,1.38
2023-05-19T23:33:54.222Z,1.52
2023-05-19T23:36:20.790Z,2.08
2023-05-19T23:38:47.140Z,1.85
2023-05-19T23:41:13.588Z,1.80
2023-05-19T23:43:39.928Z,1.40
2023-05-19T23:46:06.477Z,1.50
2023-05-19T23:48:32.904Z,1.65
2023-05-19T23:50:59.587Z,1.95
2023-05-19T23:53:26.025Z,2.03
2023-05-19T23:55:52.520Z,1.65
2023-05-19T23:58:18.937Z,1.70
